Time;durP1;ratioP1;P1;durP2;ratioP2;P2;SDS_P1;SDS_P2;PMS_P1;PMS_P2;Temp;Humidity;BMP_temperature;BMP_pressure;BME280_temperature;BME280_humidity;BME280_pressure;Samples;Min_cycle;Max_cycle;Signal;HPM_P1;HPM_P2
2021/07/05 00:00:30;;;;;;;1.20;1.10;;;;;;;12.17;100.00;92831.47;2097006;28;20048;-89
2021/07/05 00:01:32;;;;;;;1.52;1.02;;;;;;;12.26;100.00;92838.84;2095353;28;20024;-88
2021/07/05 00:02:33;;;;;;;2.47;1.30;;;;;;;12.26;100.00;92844.94;2102586;28;20020;-86
2021/07/05 00:03:33;;;;;;;2.38;1.08;;;;;;;12.23;100.00;92848.47;2123678;27;20030;-86
2021/07/05 00:04:35;;;;;;;1.42;1.05;;;;;;;12.19;100.00;92852.47;2123378;27;20019;-87
2021/07/05 00:05:36;;;;;;;1.85;1.08;;;;;;;12.19;100.00;92855.88;2112961;27;20051;-89
2021/07/05 00:06:38;;;;;;;1.63;0.95;;;;;;;12.21;100.00;92850.84;2115107;27;20023;-87
2021/07/05 00:07:39;;;;;;;2.05;1.05;;;;;;;12.19;100.00;92847.84;2113151;27;20382;-89
2021/07/05 00:08:40;;;;;;;2.17;1.00;;;;;;;12.23;100.00;92851.16;2106873;28;20028;-87
2021/07/05 00:09:41;;;;;;;1.10;1.00;;;;;;;12.22;100.00;92836.28;2114578;27;20776;-86
2021/07/05 00:10:42;;;;;;;7.97;1.70;;;;;;;12.23;100.00;92837.00;2109713;28;20031;-85
2021/07/05 00:11:42;;;;;;;1.30;1.20;;;;;;;12.27;100.00;92841.06;2104175;28;20027;-89
2021/07/05 00:12:47;;;;;;;1.05;1.05;;;;;;;12.29;100.00;92829.91;2112624;28;20028;-88
2021/07/05 00:13:47;;;;;;;2.03;1.10;;;;;;;12.29;100.00;92821.88;2123102;27;20495;-86
2021/07/05 00:14:48;;;;;;;1.23;1.13;;;;;;;12.26;100.00;92826.19;2106378;28;20046;-84
2021/07/05 00:15:50;;;;;;;1.33;1.10;;;;;;;12.30;100.00;92818.03;2114990;28;20047;-86
2021/07/05 00:16:51;;;;;;;2.38;1.10;;;;;;;12.31;100.00;92822.19;2112180;28;20023;-86
2021/07/05 00:17:56;;;;;;;1.10;1.00;;;;;;;12.32;100.00;92824.44;2111774;28;20384;-87
2021/07/05 00:18:56;;;;;;;3.10;1.38;;;;;;;12.36;100.00;92816.28;2123813;27;20019;-86
2021/07/05 00:19:59;;;;;;;2.28;1.17;;;;;;;12.38;100.00;92821.19;2115099;28;20027;-87
2021/07/05 00:20:59;;;;;;;1.00;1.00;;;;;;;12.39;100.00;92826.16;2112440;28;20053;-85
2021/07/05 00:22:00;;;;;;;4.07;1.08;;;;;;;12.39;100.00;92818.13;2115053;28;20011;-87
2021/07/05 00:23:01;;;;;;;2.65;1.20;;;;;;;12.40;100.00;92827.66;2104415;28;20019;-88
2021/07/05 00:24:02;;;;;;;1.00;1.00;;;;;;;12.36;100.00;92824.31;2114426;28;20030;-88
2021/07/05 00:25:05;;;;;;;1.20;1.10;;;;;;;12.35;100.00;92825.53;2123361;27;20015;-85
2021/07/05 00:26:06;;;;;;;1.10;1.10;;;;;;;12.39;100.00;92825.41;2114985;27;20027;-85
2021/07/05 00:27:06;;;;;;;2.92;1.10;;;;;;;12.42;100.00;92827.19;2123364;27;20675;-90
2021/07/05 00:28:08;;;;;;;2.22;0.85;;;;;;;12.42;100.00;92824.53;2120095;27;20023;-88
2021/07/05 00:29:08;;;;;;;1.65;1.00;;;;;;;12.40;100.00;92822.28;2119829;27;20037;-89
2021/07/05 00:30:10;;;;;;;0.85;0.85;;;;;;;12.39;100.00;92823.47;2106542;28;20027;-84
2021/07/05 00:31:10;;;;;;;1.20;1.10;;;;;;;12.47;100.00;92824.00;2114887;28;20077;-85
2021/07/05 00:32:11;;;;;;;1.27;0.93;;;;;;;12.48;100.00;92828.16;2114987;27;20015;-88
2021/07/05 00:33:11;;;;;;;2.88;1.02;;;;;;;12.47;100.00;92826.66;2114965;28;20015;-88
2021/07/05 00:34:12;;;;;;;2.35;0.90;;;;;;;12.48;100.00;92828.91;2124079;27;20053;-87
2021/07/05 00:35:15;;;;;;;1.75;1.00;;;;;;;12.49;100.00;92825.03;2120854;27;20375;-86
2021/07/05 00:36:16;;;;;;;2.45;1.20;;;;;;;12.44;100.00;92817.56;2123367;27;20045;-87
2021/07/05 00:37:16;;;;;;;1.15;1.10;;;;;;;12.46;100.00;92811.75;2113028;28;20023;-86
2021/07/05 00:38:17;;;;;;;3.97;1.17;;;;;;;12.48;100.00;92815.50;2114460;28;20023;-86
2021/07/05 00:39:18;;;;;;;2.17;0.95;;;;;;;12.44;100.00;92816.81;2123677;27;20016;-88
2021/07/05 00:40:19;;;;;;;1.30;1.20;;;;;;;12.47;100.00;92822.06;2114953;28;20034;-87
2021/07/05 00:41:20;;;;;;;1.10;0.95;;;;;;;12.48;100.00;92820.88;2107040;28;20031;-85
2021/07/05 00:42:21;;;;;;;1.30;1.20;;;;;;;12.49;100.00;92824.28;2106086;28;20028;-88
2021/07/05 00:43:21;;;;;;;0.90;0.90;;;;;;;12.45;100.00;92821.72;2109251;28;20024;-87
2021/07/05 00:44:22;;;;;;;1.00;1.00;;;;;;;12.48;100.00;92820.13;2123430;27;20041;-89
2021/07/05 00:45:24;;;;;;;3.78;1.25;;;;;;;12.43;100.00;92826.78;2123185;27;20027;-90
2021/07/05 00:46:25;;;;;;;1.88;1.20;;;;;;;12.37;100.00;92823.13;2114126;28;20506;-90
2021/07/05 00:47:26;;;;;;;3.40;1.83;;;;;;;12.32;100.00;92826.38;2113584;28;20061;-86
2021/07/05 00:48:27;;;;;;;1.25;1.00;;;;;;;12.28;100.00;92826.50;2114368;27;20019;-86
2021/07/05 00:49:28;;;;;;;1.35;1.13;;;;;;;12.27;100.00;92814.28;2106818;28;20027;-85
2021/07/05 00:50:29;;;;;;;1.73;0.90;;;;;;;12.20;100.00;92825.22;2105916;28;20058;-86
2021/07/05 00:51:30;;;;;;;2.33;1.10;;;;;;;12.21;100.00;92826.00;2106378;28;20053;-88
2021/07/05 00:52:33;;;;;;;3.25;1.13;;;;;;;12.15;100.00;92825.78;2095861;28;20016;-85
2021/07/05 00:53:34;;;;;;;1.33;1.00;;;;;;;12.13;100.00;92822.78;2106776;27;20493;-88
2021/07/05 00:54:35;;;;;;;1.38;1.00;;;;;;;12.09;100.00;92812.19;2110532;28;20012;-87
2021/07/05 00:55:36;;;;;;;5.22;1.13;;;;;;;12.06;100.00;92812.28;2114582;28;20098;-85
2021/07/05 00:56:37;;;;;;;1.10;1.02;;;;;;;12.07;100.00;92814.56;2114691;28;20357;-85
2021/07/05 00:57:37;;;;;;;3.67;1.20;;;;;;;12.07;100.00;92817.25;2114464;28;20019;-85
2021/07/05 00:58:39;;;;;;;1.40;1.30;;;;;;;12.05;100.00;92816.16;2106332;28;20028;-88
2021/07/05 00:59:39;;;;;;;1.33;1.23;;;;;;;12.02;100.00;92815.06;2120687;27;20056;-87
2021/07/05 01:00:41;;;;;;;4.45;1.10;;;;;;;11.96;100.00;92821.44;2123219;27;20023;-86
2021/07/05 01:01:41;;;;;;;1.20;1.00;;;;;;;11.93;100.00;92819.59;2106079;28;20020;-88
2021/07/05 01:02:44;;;;;;;1.70;1.17;;;;;;;11.92;100.00;92818.84;2097480;28;20054;-85
2021/07/05 01:03:44;;;;;;;2.00;1.17;;;;;;;11.92;100.00;92826.88;2105181;28;20015;-87
2021/07/05 01:04:46;;;;;;;2.97;1.10;;;;;;;11.91;100.00;92830.75;2105655;28;20024;-88
2021/07/05 01:05:47;;;;;;;6.28;1.13;;;;;;;11.92;100.00;92834.19;2114654;28;20062;-88
2021/07/05 01:06:48;;;;;;;1.23;1.10;;;;;;;11.89;100.00;92835.78;2111401;28;20027;-86
2021/07/05 01:07:49;;;;;;;3.83;1.30;;;;;;;11.83;100.00;92832.91;2093654;28;20540;-88
2021/07/05 01:08:50;;;;;;;4.57;1.10;;;;;;;11.86;100.00;92825.19;2102629;28;20021;-86
2021/07/05 01:09:51;;;;;;;3.83;1.20;;;;;;;11.86;100.00;92820.59;2114426;28;20023;-86
2021/07/05 01:10:51;;;;;;;1.35;1.13;;;;;;;11.86;100.00;92825.19;2113165;28;20054;-88
2021/07/05 01:11:52;;;;;;;2.10;1.10;;;;;;;11.88;100.00;92826.25;2103658;28;20384;-88
2021/07/05 01:12:54;;;;;;;1.23;1.13;;;;;;;11.89;100.00;92829.69;2121716;27;20100;-88
2021/07/05 01:13:55;;;;;;;1.35;1.00;;;;;;;11.88;100.00;92822.81;2110165;28;20027;-88
2021/07/05 01:14:56;;;;;;;2.33;1.20;;;;;;;11.86;100.00;92825.94;2105964;28;20047;-88
2021/07/05 01:15:56;;;;;;;1.50;1.13;;;;;;;11.89;100.00;92822.38;2104532;28;20030;-88
2021/07/05 01:16:57;;;;;;;2.40;1.08;;;;;;;11.92;100.00;92824.22;2101087;28;20116;-90
2021/07/05 01:18:01;;;;;;;1.33;1.02;;;;;;;11.90;100.00;92815.88;2102094;28;20115;-88
2021/07/05 01:19:02;;;;;;;1.67;1.30;;;;;;;11.90;100.00;92815.88;2097994;28;20103;-87
2021/07/05 01:20:04;;;;;;;3.40;1.17;;;;;;;11.88;100.00;92812.84;2110169;28;20027;-87
2021/07/05 01:21:05;;;;;;;1.20;1.10;;;;;;;11.92;100.00;92818.84;2112497;27;20016;-91
2021/07/05 01:22:06;;;;;;;1.35;1.17;;;;;;;11.88;100.00;92826.25;2114258;28;20505;-88
2021/07/05 01:23:08;;;;;;;2.42;1.10;;;;;;;11.91;100.00;92820.03;2116060;27;20020;-89
2021/07/05 01:24:09;;;;;;;2.95;0.90;;;;;;;11.83;100.00;92818.75;2114488;28;20549;-88
2021/07/05 01:25:14;;;;;;;2.22;1.23;;;;;;;11.85;100.00;92824.44;2105930;28;20016;-89
2021/07/05 01:26:14;;;;;;;4.43;1.10;;;;;;;11.80;100.00;92814.97;2106604;28;20020;-87
2021/07/05 01:27:16;;;;;;;4.10;1.17;;;;;;;11.83;100.00;92818.75;2106183;28;20028;-89
2021/07/05 01:28:17;;;;;;;1.80;1.08;;;;;;;11.79;100.00;92807.38;2106057;28;20015;-87
2021/07/05 01:29:18;;;;;;;1.35;1.00;;;;;;;11.79;100.00;92812.75;2105935;28;20369;-85
2021/07/05 01:30:20;;;;;;;2.58;1.17;;;;;;;11.81;100.00;92805.03;2112300;28;20069;-86
2021/07/05 01:31:21;;;;;;;4.18;1.30;;;;;;;11.83;100.00;92805.38;2097913;28;20062;-90
2021/07/05 01:32:21;;;;;;;2.65;1.30;;;;;;;11.83;100.00;92811.47;2104301;28;20024;-87
2021/07/05 01:33:22;;;;;;;2.60;1.10;;;;;;;11.82;100.00;92806.53;2114224;28;20054;-86
2021/07/05 01:34:23;;;;;;;2.97;1.17;;;;;;;11.83;100.00;92805.38;2111642;28;20569;-88
2021/07/05 01:35:24;;;;;;;3.42;1.10;;;;;;;11.83;100.00;92797.34;2112624;28;20639;-87
2021/07/05 01:36:25;;;;;;;2.33;1.13;;;;;;;11.90;100.00;92796.38;2122144;27;20073;-83
2021/07/05 01:37:26;;;;;;;4.68;1.10;;;;;;;11.88;100.00;92804.81;2120577;27;20023;-89
2021/07/05 01:38:27;;;;;;;2.78;1.20;;;;;;;11.88;100.00;92807.50;2104690;28;20458;-87
2021/07/05 01:39:28;;;;;;;1.33;1.23;;;;;;;11.87;100.00;92799.91;2104768;28;20031;-91
2021/07/05 01:40:28;;;;;;;1.20;1.10;;;;;;;11.90;100.00;92799.06;2103850;28;20020;-85
2021/07/05 01:41:29;;;;;;;1.92;1.30;;;;;;;11.89;100.00;92802.91;2113717;28;20115;-89
2021/07/05 01:42:30;;;;;;;4.53;1.38;;;;;;;11.94;100.00;92794.31;2122872;27;20563;-86
2021/07/05 01:43:31;;;;;;;2.25;0.90;;;;;;;11.95;100.00;92793.16;2122526;27;20113;-87
2021/07/05 01:44:31;;;;;;;1.27;1.17;;;;;;;11.96;100.00;92798.06;2105868;28;20030;-87
2021/07/05 01:45:33;;;;;;;2.30;1.27;;;;;;;11.95;100.00;92798.50;2114264;28;20699;-87
2021/07/05 01:46:34;;;;;;;1.33;1.23;;;;;;;11.93;100.00;92798.19;2112061;28;20130;-85
2021/07/05 01:47:35;;;;;;;3.50;1.00;;;;;;;11.96;100.00;92805.34;2097239;28;20020;-86
2021/07/05 01:48:35;;;;;;;2.92;1.02;;;;;;;11.95;100.00;92806.53;2111959;28;20027;-86
2021/07/05 01:49:38;;;;;;;2.22;1.15;;;;;;;12.00;100.00;92806.00;2120569;27;20015;-87
2021/07/05 01:50:39;;;;;;;2.60;1.13;;;;;;;11.97;100.00;92807.59;2122883;27;20027;-85
2021/07/05 01:51:40;;;;;;;1.27;1.17;;;;;;;11.95;100.00;92811.91;2122651;27;20480;-87
2021/07/05 01:52:41;;;;;;;1.23;1.10;;;;;;;11.98;100.00;92809.09;2111999;28;20102;-85
2021/07/05 01:53:42;;;;;;;2.42;1.15;;;;;;;11.97;100.00;92809.53;2104957;28;20024;-84
2021/07/05 01:54:42;;;;;;;3.47;1.42;;;;;;;12.04;100.00;92817.34;2097399;28;20625;-87
2021/07/05 01:55:44;;;;;;;2.00;1.00;;;;;;;12.01;100.00;92812.84;2105846;28;20047;-88
2021/07/05 01:56:46;;;;;;;2.53;1.23;;;;;;;12.00;100.00;92814.03;2114297;28;20023;-87
2021/07/05 01:57:46;;;;;;;3.80;1.08;;;;;;;12.02;100.00;92817.75;2114157;28;20098;-85
2021/07/05 01:58:47;;;;;;;1.50;1.20;;;;;;;12.09;100.00;92824.84;2122767;27;20526;-88
2021/07/05 01:59:47;;;;;;;1.58;1.20;;;;;;;12.12;100.00;92813.25;2113763;28;20437;-88
2021/07/05 02:00:49;;;;;;;1.85;1.00;;;;;;;12.13;100.00;92812.06;2118511;27;20018;-84
2021/07/05 02:01:50;;;;;;;1.20;1.10;;;;;;;12.10;100.00;92811.00;2121390;27;20416;-86
2021/07/05 02:02:52;;;;;;;2.22;1.30;;;;;;;12.11;100.00;92809.06;2111924;28;20023;-87
2021/07/05 02:03:53;;;;;;;1.23;1.10;;;;;;;12.13;100.00;92814.75;2102041;28;20992;-85
2021/07/05 02:06:07;;;;;;;;;;;;;;;12.10;100.00;92816.34;2138380;27;20494;-83
2021/07/05 02:07:07;;;;;;;6.53;1.20;;;;;;;12.09;100.00;92828.25;2121127;28;19912;-85
2021/07/05 02:08:08;;;;;;;1.08;1.02;;;;;;;12.07;100.00;92819.91;2112578;28;20031;-84
2021/07/05 02:09:09;;;;;;;2.90;1.10;;;;;;;12.10;100.00;92820.97;2116881;28;20464;-84
2021/07/05 02:10:12;;;;;;;1.27;1.17;;;;;;;12.12;100.00;92815.94;2116045;28;20399;-84
2021/07/05 02:11:13;;;;;;;1.20;1.10;;;;;;;12.12;100.00;92815.94;2104377;28;20413;-85
2021/07/05 02:12:14;;;;;;;1.40;1.30;;;;;;;12.06;100.00;92812.28;2104804;28;20110;-84
2021/07/05 02:13:25;;;;;;;2.30;1.20;;;;;;;12.05;100.00;92806.19;2096275;28;20032;-84
2021/07/05 02:14:25;;;;;;;1.25;1.10;;;;;;;12.07;100.00;92805.75;2102661;28;20062;-84
2021/07/05 02:15:26;;;;;;;1.40;1.10;;;;;;;12.07;100.00;92809.19;2098951;28;20040;-84
2021/07/05 02:16:27;;;;;;;1.52;1.05;;;;;;;12.09;100.00;92806.81;2111537;28;20019;-84
2021/07/05 02:17:27;;;;;;;3.38;1.40;;;;;;;12.05;100.00;92811.53;2110277;28;20012;-85
2021/07/05 02:18:30;;;;;;;1.48;1.08;;;;;;;12.06;100.00;92805.00;2100504;28;20066;-84
2021/07/05 02:19:30;;;;;;;3.10;1.10;;;;;;;12.07;100.00;92806.53;2102174;28;20016;-84
2021/07/05 02:20:32;;;;;;;5.63;1.30;;;;;;;12.04;100.00;92798.59;2112066;28;20590;-85
2021/07/05 02:21:33;;;;;;;2.50;1.30;;;;;;;12.07;100.00;92803.84;2104078;28;20026;-84
2021/07/05 02:22:33;;;;;;;2.83;1.00;;;;;;;12.08;100.00;92799.22;2095638;28;20029;-85
2021/07/05 02:23:36;;;;;;;1.50;1.30;;;;;;;12.09;100.00;92798.03;2092960;28;20017;-85
2021/07/05 02:24:36;;;;;;;1.35;1.08;;;;;;;12.07;100.00;92803.84;2110362;28;20047;-84
2021/07/05 02:25:38;;;;;;;1.23;1.13;;;;;;;12.13;100.00;92800.59;2108276;28;20077;-84
2021/07/05 02:26:38;;;;;;;2.17;1.40;;;;;;;12.08;100.00;92791.94;2113590;28;20016;-85
2021/07/05 02:27:41;;;;;;;2.33;1.00;;;;;;;12.07;100.00;92795.03;2106092;28;20536;-84
2021/07/05 02:28:42;;;;;;;4.30;1.30;;;;;;;12.04;100.00;92782.53;2108343;28;20071;-85
2021/07/05 02:29:42;;;;;;;2.58;1.10;;;;;;;12.09;100.00;92780.03;2099842;28;20028;-86
2021/07/05 02:30:45;;;;;;;5.07;1.00;;;;;;;12.10;100.00;92784.19;2095539;28;20393;-85
2021/07/05 02:31:46;;;;;;;2.35;1.52;;;;;;;12.13;100.00;92779.91;2117257;27;20103;-84
2021/07/05 02:32:48;;;;;;;2.58;1.20;;;;;;;12.18;100.00;92787.41;2123184;27;20020;-85
2021/07/05 02:33:49;;;;;;;1.95;0.95;;;;;;;12.11;100.00;92787.63;2103970;28;20028;-84
2021/07/05 02:34:49;;;;;;;2.70;1.00;;;;;;;12.14;100.00;92789.44;2095449;28;20099;-84
2021/07/05 02:35:50;;;;;;;1.00;1.00;;;;;;;12.22;100.00;92787.28;2111008;28;20020;-83
2021/07/05 02:36:51;;;;;;;1.70;1.00;;;;;;;12.18;100.00;92781.28;2112206;28;20061;-84
2021/07/05 02:37:54;;;;;;;1.02;0.90;;;;;;;12.22;100.00;92785.34;2103063;28;20377;-84
2021/07/05 02:38:55;;;;;;;0.80;0.80;;;;;;;12.22;100.00;92780.00;2095038;28;20473;-85
2021/07/05 02:39:55;;;;;;;0.80;0.80;;;;;;;12.29;100.00;92773.63;2095601;28;20024;-85
2021/07/05 02:40:57;;;;;;;1.52;0.88;;;;;;;12.37;100.00;92777.56;2107062;28;20016;-84
2021/07/05 02:41:57;;;;;;;0.82;0.82;;;;;;;12.35;100.00;92772.66;2116578;28;20042;-84
2021/07/05 02:42:59;;;;;;;2.35;0.98;;;;;;;12.28;100.00;92782.88;2103852;28;20075;-85
2021/07/05 02:43:59;;;;;;;5.07;0.90;;;;;;;12.26;100.00;92775.28;2103944;28;20077;-84
2021/07/05 02:45:05;;;;;;;1.08;0.98;;;;;;;12.21;100.00;92770.47;2112113;28;20016;-84
2021/07/05 02:46:05;;;;;;;1.30;0.90;;;;;;;12.19;100.00;92786.22;2114974;27;20459;-84
2021/07/05 02:47:06;;;;;;;1.25;0.90;;;;;;;12.22;100.00;92785.34;2118245;28;20019;-84
2021/07/05 02:48:10;;;;;;;1.10;0.82;;;;;;;12.25;100.00;92787.19;2108040;28;20515;-85
2021/07/05 02:49:11;;;;;;;0.70;0.70;;;;;;;12.35;100.00;92780.69;2110565;28;20488;-85
2021/07/05 02:50:13;;;;;;;0.80;0.80;;;;;;;12.29;100.00;92782.44;2118272;27;20053;-84
2021/07/05 02:51:14;;;;;;;3.17;0.75;;;;;;;12.27;100.00;92784.06;2110001;28;20023;-84
2021/07/05 02:52:15;;;;;;;1.75;0.80;;;;;;;12.22;100.00;92774.63;2110248;28;20035;-84
2021/07/05 02:53:16;;;;;;;1.05;0.77;;;;;;;12.18;100.00;92781.28;2103662;28;20028;-84
2021/07/05 02:54:17;;;;;;;0.93;0.73;;;;;;;12.10;100.00;92784.19;2103756;28;20396;-84
2021/07/05 02:55:18;;;;;;;1.50;0.88;;;;;;;12.04;100.00;92785.19;2116437;28;20024;-84
2021/07/05 02:56:18;;;;;;;1.92;0.82;;;;;;;12.03;100.00;92789.06;2107985;28;20062;-84
2021/07/05 02:57:31;;;;;;;0.75;0.75;;;;;;;12.08;100.00;92788.50;2112158;28;20012;-83
2021/07/05 02:58:33;;;;;;;1.85;1.00;;;;;;;12.03;100.00;92783.72;2116251;28;20030;-84
2021/07/05 02:59:33;;;;;;;0.80;0.80;;;;;;;12.02;100.00;92787.53;2103743;28;20016;-83
2021/07/05 03:00:41;;;;;;;2.20;0.90;;;;;;;12.03;100.00;92789.06;2105916;28;20028;-83
2021/07/05 03:01:45;;;;;;;1.60;0.68;;;;;;;12.06;100.00;92780.88;2096143;28;20021;-84
2021/07/05 03:02:47;;;;;;;3.80;0.90;;;;;;;12.05;100.00;92776.72;2101613;28;20473;-85
2021/07/05 03:03:47;;;;;;;1.48;0.85;;;;;;;12.05;100.00;92776.72;2088386;28;20082;-83
2021/07/05 03:04:48;;;;;;;3.10;0.98;;;;;;;12.02;100.00;92772.22;2103080;28;20460;-84
2021/07/05 03:05:50;;;;;;;1.77;1.00;;;;;;;11.96;100.00;92770.53;2094754;28;20033;-84
2021/07/05 03:06:50;;;;;;;1.88;0.93;;;;;;;11.98;100.00;92786.91;2110735;28;20032;-85
2021/07/05 03:07:51;;;;;;;1.52;0.90;;;;;;;11.96;100.00;92784.66;2108268;28;20051;-84
2021/07/05 03:08:52;;;;;;;0.70;0.70;;;;;;;11.99;100.00;92791.09;2093803;28;20531;-85
2021/07/05 03:09:53;;;;;;;0.73;0.68;;;;;;;12.02;100.00;92784.88;2103549;28;20111;-84
2021/07/05 03:10:54;;;;;;;1.05;0.88;;;;;;;12.00;100.00;92779.94;2115711;28;20036;-84
2021/07/05 03:11:55;;;;;;;2.50;0.95;;;;;;;12.00;100.00;92782.63;2116485;28;20024;-84
2021/07/05 03:12:57;;;;;;;2.25;0.70;;;;;;;12.00;100.00;92771.91;2109993;28;20032;-84
2021/07/05 03:13:57;;;;;;;0.73;0.73;;;;;;;12.01;100.00;92772.66;2100253;28;20024;-85
2021/07/05 03:14:58;;;;;;;0.90;0.80;;;;;;;11.97;100.00;92772.78;2092240;28;20024;-85
2021/07/05 03:15:59;;;;;;;0.82;0.82;;;;;;;11.95;100.00;92767.09;2102677;28;20024;-85
2021/07/05 03:16:59;;;;;;;1.17;0.60;;;;;;;11.91;100.00;92771.84;2094650;28;20032;-84
2021/07/05 03:18:00;;;;;;;0.88;0.77;;;;;;;11.93;100.00;92766.78;2097242;28;20105;-82
2021/07/05 03:19:01;;;;;;;0.80;0.80;;;;;;;11.92;100.00;92764.53;2103661;28;20039;-85
2021/07/05 03:20:05;;;;;;;0.95;0.68;;;;;;;11.97;100.00;92762.06;2095654;28;20032;-84
2021/07/05 03:21:06;;;;;;;0.85;0.63;;;;;;;11.92;100.00;92765.28;2098600;28;20513;-84
2021/07/05 03:22:07;;;;;;;0.80;0.80;;;;;;;11.87;100.00;92767.78;2093964;28;20017;-84
2021/07/05 03:23:12;;;;;;;0.80;0.80;;;;;;;11.88;100.00;92761.97;2097625;28;20385;-83
2021/07/05 03:24:12;;;;;;;0.85;0.77;;;;;;;11.82;100.00;92763.69;2108012;28;20046;-84
2021/07/05 03:25:15;;;;;;;1.52;0.50;;;;;;;11.75;100.00;92756.63;2092435;28;20020;-84
2021/07/05 03:26:15;;;;;;;2.38;0.88;;;;;;;11.71;100.00;92761.34;2087477;28;20029;-83
2021/07/05 03:27:16;;;;;;;0.85;0.80;;;;;;;11.75;100.00;92761.22;2093458;28;20022;-84
2021/07/05 03:28:18;;;;;;;0.80;0.80;;;;;;;11.71;100.00;92760.59;2102305;28;20749;-85
2021/07/05 03:29:18;;;;;;;1.50;0.80;;;;;;;11.72;100.00;92754.03;2093756;28;20104;-84
2021/07/05 03:30:22;;;;;;;1.17;0.93;;;;;;;11.72;100.00;92760.19;2091933;28;20021;-85
2021/07/05 03:31:22;;;;;;;2.15;1.27;;;;;;;11.67;100.00;92754.59;2094563;28;20087;-85
2021/07/05 03:32:23;;;;;;;1.25;0.90;;;;;;;11.62;100.00;92753.22;2107401;28;20053;-83
2021/07/05 03:33:24;;;;;;;1.88;1.08;;;;;;;11.69;100.00;92757.59;2086084;28;20147;-85
2021/07/05 03:34:25;;;;;;;5.25;1.00;;;;;;;11.60;100.00;92748.28;2091638;28;20025;-85
2021/07/05 03:35:26;;;;;;;2.63;1.30;;;;;;;11.62;100.00;92737.16;2103524;28;20481;-84
2021/07/05 03:36:27;;;;;;;4.82;4.43;;;;;;;11.59;100.00;92732.69;2095946;28;20534;-84
2021/07/05 03:37:28;;;;;;;2.13;1.92;;;;;;;11.67;100.00;92735.84;2097489;28;20110;-84
2021/07/05 03:38:28;;;;;;;2.10;2.00;;;;;;;11.66;100.00;92742.41;2103362;28;20081;-84
2021/07/05 03:39:29;;;;;;;1.40;1.15;;;;;;;11.65;100.00;92735.53;2103933;28;20074;-84
2021/07/05 03:40:32;;;;;;;1.25;1.20;;;;;;;11.60;100.00;92734.91;2111139;28;20369;-84
2021/07/05 03:41:33;;;;;;;1.60;1.05;;;;;;;11.60;100.00;92740.25;2103866;28;20024;-84
2021/07/05 03:42:34;;;;;;;1.20;1.08;;;;;;;11.55;100.00;92742.75;2106196;28;20027;-84
2021/07/05 03:43:34;;;;;;;2.40;1.30;;;;;;;11.55;100.00;92737.38;2104177;28;20522;-83
2021/07/05 03:44:35;;;;;;;2.15;1.27;;;;;;;11.57;100.00;92743.03;2089544;28;20020;-84
2021/07/05 03:45:38;;;;;;;2.35;1.02;;;;;;;11.55;100.00;92748.84;2096851;28;20043;-84
2021/07/05 03:46:39;;;;;;;1.15;1.05;;;;;;;11.56;100.00;92750.34;2094712;28;20481;-84
2021/07/05 03:47:40;;;;;;;1.17;1.05;;;;;;;11.60;100.00;92753.66;2095869;28;20033;-85
2021/07/05 03:48:41;;;;;;;1.00;1.00;;;;;;;11.57;100.00;92748.41;2113090;28;20431;-84
2021/07/05 03:49:41;;;;;;;2.65;1.10;;;;;;;11.55;100.00;92751.53;2098260;28;20028;-84
2021/07/05 03:50:42;;;;;;;1.27;1.17;;;;;;;11.61;100.00;92757.06;2094616;28;20029;-83
2021/07/05 03:51:43;;;;;;;2.65;1.10;;;;;;;11.59;100.00;92757.50;2102083;28;20123;-84
2021/07/05 03:52:44;;;;;;;3.10;1.15;;;;;;;11.62;100.00;92760.50;2083954;28;20116;-84
2021/07/05 03:53:45;;;;;;;3.72;1.70;;;;;;;11.66;100.00;92758.47;2092850;28;20035;-84
2021/07/05 03:54:45;;;;;;;1.80;1.50;;;;;;;11.58;100.00;92753.31;2096034;28;20385;-84
2021/07/05 03:55:46;;;;;;;1.80;1.27;;;;;;;11.64;100.00;92752.78;2084696;28;20032;-84
2021/07/05 03:56:47;;;;;;;1.50;1.40;;;;;;;11.65;100.00;92756.97;2087507;28;20024;-84
2021/07/05 03:57:49;;;;;;;1.38;1.20;;;;;;;11.64;100.00;92745.50;2088926;28;20020;-85
2021/07/05 03:58:49;;;;;;;1.88;1.50;;;;;;;11.68;100.00;92756.13;2093890;28;20017;-84
2021/07/05 03:59:54;;;;;;;1.33;1.23;;;;;;;11.64;100.00;92756.22;2093268;28;20437;-84
2021/07/05 04:00:54;;;;;;;2.47;1.40;;;;;;;11.63;100.00;92756.63;2093969;28;20025;-85
2021/07/05 04:01:55;;;;;;;1.40;1.30;;;;;;;11.64;100.00;92758.91;2087808;28;20017;-84
2021/07/05 04:02:56;;;;;;;1.83;1.50;;;;;;;11.60;100.00;92753.66;2089169;28;20021;-84
2021/07/05 04:03:57;;;;;;;1.65;1.50;;;;;;;11.66;100.00;92756.53;2089305;28;20079;-85
2021/07/05 04:04:57;;;;;;;3.70;1.48;;;;;;;11.66;100.00;92745.81;2089116;28;20021;-85
2021/07/05 04:05:59;;;;;;;1.58;1.48;;;;;;;11.61;100.00;92751.72;2097461;28;20032;-85
2021/07/05 04:06:59;;;;;;;1.60;1.30;;;;;;;11.65;100.00;92746.25;2087593;28;20021;-85
2021/07/05 04:08:02;;;;;;;1.70;1.60;;;;;;;11.66;100.00;92759.19;2087657;28;20079;-83
2021/07/05 04:09:05;;;;;;;3.03;1.70;;;;;;;11.75;100.00;92753.94;2087892;28;20056;-85
2021/07/05 04:10:07;;;;;;;2.65;1.98;;;;;;;11.76;100.00;92747.41;2096158;28;20024;-85
2021/07/05 04:11:08;;;;;;;1.95;1.70;;;;;;;11.75;100.00;92745.16;2093914;28;20513;-85
2021/07/05 04:12:10;;;;;;;1.83;1.70;;;;;;;11.75;100.00;92748.59;2094977;28;20031;-84
2021/07/05 04:13:11;;;;;;;2.58;1.63;;;;;;;11.72;100.00;92757.50;2105262;28;20032;-85
2021/07/05 04:14:12;;;;;;;2.53;1.67;;;;;;;11.74;100.00;92754.38;2103962;28;20486;-84
2021/07/05 04:15:13;;;;;;;6.95;1.90;;;;;;;11.75;100.00;92755.88;2114328;28;20068;-84
2021/07/05 04:16:14;;;;;;;5.90;1.45;;;;;;;11.80;100.00;92755.31;2104926;28;20133;-84
2021/07/05 04:17:16;;;;;;;1.60;1.50;;;;;;;11.77;100.00;92748.91;2093251;28;20106;-85
2021/07/05 04:18:16;;;;;;;5.15;1.55;;;;;;;11.82;100.00;92750.28;2095501;28;20047;-84
2021/07/05 04:19:17;;;;;;;2.13;1.67;;;;;;;11.79;100.00;92756.50;2097304;28;20028;-85
2021/07/05 04:20:21;;;;;;;3.20;1.40;;;;;;;11.82;100.00;92761.00;2105050;28;20077;-85
2021/07/05 04:21:25;;;;;;;2.10;1.45;;;;;;;11.84;100.00;92764.75;2104783;28;20396;-83
2021/07/05 04:22:26;;;;;;;2.47;1.20;;;;;;;11.84;100.00;92758.66;2097738;28;20080;-83
2021/07/05 04:23:27;;;;;;;1.60;1.50;;;;;;;11.88;100.00;92769.25;2098682;28;20038;-83
2021/07/05 04:24:28;;;;;;;1.48;1.35;;;;;;;11.86;100.00;92760.94;2094791;28;20032;-84
2021/07/05 04:25:28;;;;;;;2.85;1.58;;;;;;;11.87;100.00;92759.75;2095908;28;20075;-84
2021/07/05 04:26:29;;;;;;;1.40;1.30;;;;;;;11.89;100.00;92760.03;2085311;28;20108;-84
2021/07/05 04:27:29;;;;;;;1.85;1.13;;;;;;;11.90;100.00;92767.66;2103890;28;20165;-84
2021/07/05 04:28:30;;;;;;;1.75;1.40;;;;;;;11.89;100.00;92773.44;2112402;28;20023;-84
2021/07/05 04:29:31;;;;;;;2.40;1.40;;;;;;;11.89;100.00;92779.53;2103120;28;20129;-84
2021/07/05 04:30:32;;;;;;;1.50;1.40;;;;;;;11.90;100.00;92788.34;2104715;28;20027;-85
2021/07/05 04:31:33;;;;;;;1.75;1.33;;;;;;;11.88;100.00;92786.06;2095830;28;20074;-84
2021/07/05 04:32:37;;;;;;;1.40;1.30;;;;;;;11.92;100.00;92785.97;2093015;28;20439;-85
2021/07/05 04:33:37;;;;;;;2.17;1.25;;;;;;;11.94;100.00;92779.00;2096538;28;20021;-84
2021/07/05 04:34:38;;;;;;;1.75;1.65;;;;;;;11.93;100.00;92782.09;2090155;28;20027;-83
2021/07/05 04:35:39;;;;;;;2.72;1.30;;;;;;;11.97;100.00;92774.72;2098273;28;20043;-83
2021/07/05 04:36:40;;;;;;;1.38;1.27;;;;;;;11.97;100.00;92775.44;2093344;28;20028;-83
2021/07/05 04:37:41;;;;;;;6.88;1.60;;;;;;;11.98;100.00;92774.25;2098456;28;20025;-83
2021/07/05 04:38:42;;;;;;;2.25;1.45;;;;;;;11.98;100.00;92773.50;2092735;28;20082;-83
2021/07/05 04:39:43;;;;;;;1.45;1.27;;;;;;;11.91;100.00;92769.16;2097052;28;20114;-83
2021/07/05 04:40:43;;;;;;;2.35;1.30;;;;;;;11.96;100.00;92773.22;2105543;28;20040;-84
2021/07/05 04:41:44;;;;;;;1.10;1.10;;;;;;;11.97;100.00;92767.41;2107956;27;20030;-85
2021/07/05 04:42:46;;;;;;;3.25;1.58;;;;;;;11.97;100.00;92762.06;2101498;28;20029;-84
2021/07/05 04:43:47;;;;;;;3.05;1.58;;;;;;;11.99;100.00;92764.31;2104834;28;20031;-84
2021/07/05 04:44:50;;;;;;;3.00;1.30;;;;;;;11.97;100.00;92756.69;2092731;28;20041;-84
2021/07/05 04:45:54;;;;;;;2.28;1.60;;;;;;;12.01;100.00;92751.22;2089250;28;20036;-84